virtualACA

Welcome To Vancouver International Airport CYVR

Hub Roster

Pilot Domicile Rank
Brian Kozushka - ACA1102CanadaChief Pilot
Jean-Michel Lazare - ACA2310FranceChief Pilot
Doug Fisher - ACA3285CanadaChief Pilot
Christian Parise - ACA3308CanadaNew Hire
Wil Barker - ACA3314United StatesNew Hire

Current Vatsim Weather


CYVR 041739Z 09007KT 20SM FEW014 SCT048 BKN068 13/11 A3010 RMK CU1SC4AC3 CU TR SLP193
Vancouver International Airport